sensor_id;sensor_type;location;lat;lon;timestamp;temperature;humidity
11083;DHT22;5595;50.186;8.468;2022-11-20T00:01:56;3.00;99.90
11083;DHT22;5595;50.186;8.468;2022-11-20T00:04:23;3.00;99.90
11083;DHT22;5595;50.186;8.468;2022-11-20T00:06:50;2.90;99.90
11083;DHT22;5595;50.186;8.468;2022-11-20T00:09:16;2.80;99.90
11083;DHT22;5595;50.186;8.468;2022-11-20T00:11:44;2.70;99.90
11083;DHT22;5595;50.186;8.468;2022-11-20T00:14:11;2.70;99.90
11083;DHT22;5595;50.186;8.468;2022-11-20T00:16:38;2.60;99.90
11083;DHT22;5595;50.186;8.468;2022-11-20T00:19:06;2.70;99.90
11083;DHT22;5595;50.186;8.468;2022-11-20T00:21:33;2.70;99.90
11083;DHT22;5595;50.186;8.468;2022-11-20T00:23:59;2.70;99.90
11083;DHT22;5595;50.186;8.468;2022-11-20T00:26:27;2.70;99.90
11083;DHT22;5595;50.186;8.468;2022-11-20T00:28:56;2.90;99.90
11083;DHT22;5595;50.186;8.468;2022-11-20T00:31:23;2.90;99.90
11083;DHT22;5595;50.186;8.468;2022-11-20T00:33:51;2.80;99.90
11083;DHT22;5595;50.186;8.468;2022-11-20T00:36:21;2.80;99.90
11083;DHT22;5595;50.186;8.468;2022-11-20T00:38:51;2.80;99.90
11083;DHT22;5595;50.186;8.468;2022-11-20T00:41:18;2.80;99.90
11083;DHT22;5595;50.186;8.468;2022-11-20T00:43:45;2.80;99.90
11083;DHT22;5595;50.186;8.468;2022-11-20T00:46:14;2.90;99.90
11083;DHT22;5595;50.186;8.468;2022-11-20T00:48:42;3.00;99.90
11083;DHT22;5595;50.186;8.468;2022-11-20T00:51:11;3.00;99.90
11083;DHT22;5595;50.186;8.468;2022-11-20T00:53:40;3.10;99.90
11083;DHT22;5595;50.186;8.468;2022-11-20T00:56:09;3.10;99.90
11083;DHT22;5595;50.186;8.468;2022-11-20T00:58:38;3.10;99.90
11083;DHT22;5595;50.186;8.468;2022-11-20T01:01:07;3.30;99.90
11083;DHT22;5595;50.186;8.468;2022-11-20T01:03:35;3.30;99.90
11083;DHT22;5595;50.186;8.468;2022-11-20T01:06:07;3.30;99.90
11083;DHT22;5595;50.186;8.468;2022-11-20T01:08:35;3.30;99.90
11083;DHT22;5595;50.186;8.468;2022-11-20T01:11:06;3.20;99.90
11083;DHT22;5595;50.186;8.468;2022-11-20T01:13:34;3.20;99.90
11083;DHT22;5595;50.186;8.468;2022-11-20T01:16:04;3.20;99.90
11083;DHT22;5595;50.186;8.468;2022-11-20T01:18:32;3.20;99.90
11083;DHT22;5595;50.186;8.468;2022-11-20T01:21:04;3.40;99.90
11083;DHT22;5595;50.186;8.468;2022-11-20T01:23:32;3.30;99.90
11083;DHT22;5595;50.186;8.468;2022-11-20T01:26:00;3.30;99.90
11083;DHT22;5595;50.186;8.468;2022-11-20T01:28:30;3.40;99.90
11083;DHT22;5595;50.186;8.468;2022-11-20T01:30:57;3.40;99.90
11083;DHT22;5595;50.186;8.468;2022-11-20T01:33:27;3.40;99.90
11083;DHT22;5595;50.186;8.468;2022-11-20T01:36:03;3.40;99.90
11083;DHT22;5595;50.186;8.468;2022-11-20T01:38:32;3.40;99.90
11083;DHT22;5595;50.186;8.468;2022-11-20T01:40:59;3.40;99.90
11083;DHT22;5595;50.186;8.468;2022-11-20T01:43:26;3.40;99.90
11083;DHT22;5595;50.186;8.468;2022-11-20T01:46:13;3.40;99.90
11083;DHT22;5595;50.186;8.468;2022-11-20T01:48:46;3.40;99.90
11083;DHT22;5595;50.186;8.468;2022-11-20T01:51:21;3.40;99.90
11083;DHT22;5595;50.186;8.468;2022-11-20T01:53:48;3.30;99.90
11083;DHT22;5595;50.186;8.468;2022-11-20T01:56:17;3.30;99.90
11083;DHT22;5595;50.186;8.468;2022-11-20T01:58:48;3.30;99.90
11083;DHT22;5595;50.186;8.468;2022-11-20T02:01:18;3.30;99.90
11083;DHT22;5595;50.186;8.468;2022-11-20T02:03:45;3.30;99.90
11083;DHT22;5595;50.186;8.468;2022-11-20T02:06:16;3.30;99.90
11083;DHT22;5595;50.186;8.468;2022-11-20T02:08:44;3.30;99.90
11083;DHT22;5595;50.186;8.468;2022-11-20T02:11:11;3.30;99.90
11083;DHT22;5595;50.186;8.468;2022-11-20T02:13:39;3.40;99.90
11083;DHT22;5595;50.186;8.468;2022-11-20T02:16:18;3.30;99.90
11083;DHT22;5595;50.186;8.468;2022-11-20T02:18:46;3.30;99.90
11083;DHT22;5595;50.186;8.468;2022-11-20T02:21:21;3.30;99.90
11083;DHT22;5595;50.186;8.468;2022-11-20T02:24:05;3.30;99.90
11083;DHT22;5595;50.186;8.468;2022-11-20T02:26:35;3.30;99.90
11083;DHT22;5595;50.186;8.468;2022-11-20T02:29:04;3.30;99.90
11083;DHT22;5595;50.186;8.468;2022-11-20T02:31:40;3.30;99.90
11083;DHT22;5595;50.186;8.468;2022-11-20T02:34:07;3.30;99.90
11083;DHT22;5595;50.186;8.468;2022-11-20T02:36:36;3.20;99.90
11083;DHT22;5595;50.186;8.468;2022-11-20T02:39:05;3.10;99.90
11083;DHT22;5595;50.186;8.468;2022-11-20T02:41:33;3.00;99.90
11083;DHT22;5595;50.186;8.468;2022-11-20T02:44:01;3.10;99.90
11083;DHT22;5595;50.186;8.468;2022-11-20T02:46:28;3.10;99.90
11083;DHT22;5595;50.186;8.468;2022-11-20T02:48:55;3.20;99.90
11083;DHT22;5595;50.186;8.468;2022-11-20T02:51:22;3.30;99.90
11083;DHT22;5595;50.186;8.468;2022-11-20T02:53:49;3.30;99.90
11083;DHT22;5595;50.186;8.468;2022-11-20T02:56:18;3.30;99.90
11083;DHT22;5595;50.186;8.468;2022-11-20T02:58:44;3.30;99.90
11083;DHT22;5595;50.186;8.468;2022-11-20T03:01:16;3.30;99.90
11083;DHT22;5595;50.186;8.468;2022-11-20T03:03:43;3.30;99.90
11083;DHT22;5595;50.186;8.468;2022-11-20T03:06:10;3.40;99.90
11083;DHT22;5595;50.186;8.468;2022-11-20T03:08:37;3.40;99.90
11083;DHT22;5595;50.186;8.468;2022-11-20T03:11:05;3.30;99.90
11083;DHT22;5595;50.186;8.468;2022-11-20T03:13:34;3.30;99.90
11083;DHT22;5595;50.186;8.468;2022-11-20T03:16:07;3.20;99.90
11083;DHT22;5595;50.186;8.468;2022-11-20T03:18:34;3.20;99.90
11083;DHT22;5595;50.186;8.468;2022-11-20T03:21:01;3.30;99.90
11083;DHT22;5595;50.186;8.468;2022-11-20T03:23:29;3.30;99.90
11083;DHT22;5595;50.186;8.468;2022-11-20T03:26:07;3.30;99.90
11083;DHT22;5595;50.186;8.468;2022-11-20T03:28:36;3.30;99.90
11083;DHT22;5595;50.186;8.468;2022-11-20T03:31:07;3.30;99.90
11083;DHT22;5595;50.186;8.468;2022-11-20T03:33:36;3.40;99.90
11083;DHT22;5595;50.186;8.468;2022-11-20T03:36:04;3.30;99.90
11083;DHT22;5595;50.186;8.468;2022-11-20T03:38:32;3.40;99.90
11083;DHT22;5595;50.186;8.468;2022-11-20T03:41:00;3.40;99.90
11083;DHT22;5595;50.186;8.468;2022-11-20T03:43:27;3.40;99.90
11083;DHT22;5595;50.186;8.468;2022-11-20T03:45:56;3.30;99.90
11083;DHT22;5595;50.186;8.468;2022-11-20T03:48:23;3.20;99.90
11083;DHT22;5595;50.186;8.468;2022-11-20T03:50:50;3.20;99.90
11083;DHT22;5595;50.186;8.468;2022-11-20T03:53:19;3.20;99.90
11083;DHT22;5595;50.186;8.468;2022-11-20T03:55:50;3.20;99.90
11083;DHT22;5595;50.186;8.468;2022-11-20T03:58:17;3.20;99.90
11083;DHT22;5595;50.186;8.468;2022-11-20T04:00:44;3.30;99.90
11083;DHT22;5595;50.186;8.468;2022-11-20T04:03:12;3.30;99.90
11083;DHT22;5595;50.186;8.468;2022-11-20T04:05:39;3.40;99.90
11083;DHT22;5595;50.186;8.468;2022-11-20T04:08:06;3.40;99.90
11083;DHT22;5595;50.186;8.468;2022-11-20T04:10:33;3.40;99.90
11083;DHT22;5595;50.186;8.468;2022-11-20T04:13:00;3.30;99.90
11083;DHT22;5595;50.186;8.468;2022-11-20T04:15:27;3.30;99.90
11083;DHT22;5595;50.186;8.468;2022-11-20T04:17:54;3.30;99.90
11083;DHT22;5595;50.186;8.468;2022-11-20T04:20:22;3.30;99.90
11083;DHT22;5595;50.186;8.468;2022-11-20T04:22:49;3.30;99.90
11083;DHT22;5595;50.186;8.468;2022-11-20T04:25:16;3.30;99.90
11083;DHT22;5595;50.186;8.468;2022-11-20T04:27:43;3.30;99.90
11083;DHT22;5595;50.186;8.468;2022-11-20T04:30:11;3.30;99.90
11083;DHT22;5595;50.186;8.468;2022-11-20T04:32:38;3.30;99.90
11083;DHT22;5595;50.186;8.468;2022-11-20T04:35:05;3.30;99.90
11083;DHT22;5595;50.186;8.468;2022-11-20T04:37:33;3.30;99.90
11083;DHT22;5595;50.186;8.468;2022-11-20T04:40:01;3.30;99.90
11083;DHT22;5595;50.186;8.468;2022-11-20T04:42:27;3.30;99.90
11083;DHT22;5595;50.186;8.468;2022-11-20T04:44:57;3.40;99.90
11083;DHT22;5595;50.186;8.468;2022-11-20T04:47:24;3.40;99.90
11083;DHT22;5595;50.186;8.468;2022-11-20T04:49:51;3.40;99.90
11083;DHT22;5595;50.186;8.468;2022-11-20T04:52:18;3.40;99.90
11083;DHT22;5595;50.186;8.468;2022-11-20T04:54:46;3.40;99.90
11083;DHT22;5595;50.186;8.468;2022-11-20T04:57:14;3.40;99.90
11083;DHT22;5595;50.186;8.468;2022-11-20T04:59:41;3.40;99.90
11083;DHT22;5595;50.186;8.468;2022-11-20T05:02:09;3.50;99.90
11083;DHT22;5595;50.186;8.468;2022-11-20T05:04:36;3.50;99.90
11083;DHT22;5595;50.186;8.468;2022-11-20T05:07:03;3.50;99.90
11083;DHT22;5595;50.186;8.468;2022-11-20T05:09:30;3.50;99.90
11083;DHT22;5595;50.186;8.468;2022-11-20T05:11:59;3.50;99.90
11083;DHT22;5595;50.186;8.468;2022-11-20T05:14:26;3.50;99.90
11083;DHT22;5595;50.186;8.468;2022-11-20T05:16:53;3.50;99.90
11083;DHT22;5595;50.186;8.468;2022-11-20T05:19:20;3.50;99.90
11083;DHT22;5595;50.186;8.468;2022-11-20T05:21:46;3.40;99.90
11083;DHT22;5595;50.186;8.468;2022-11-20T05:24:13;3.30;99.90
11083;DHT22;5595;50.186;8.468;2022-11-20T05:26:40;3.30;99.90
11083;DHT22;5595;50.186;8.468;2022-11-20T05:29:10;3.30;99.90
11083;DHT22;5595;50.186;8.468;2022-11-20T05:31:39;3.30;99.90
11083;DHT22;5595;50.186;8.468;2022-11-20T05:34:06;3.30;99.90
11083;DHT22;5595;50.186;8.468;2022-11-20T05:36:33;3.30;99.90
11083;DHT22;5595;50.186;8.468;2022-11-20T05:39:00;3.30;99.90
11083;DHT22;5595;50.186;8.468;2022-11-20T05:41:27;3.30;99.90
11083;DHT22;5595;50.186;8.468;2022-11-20T05:43:55;3.30;99.90
11083;DHT22;5595;50.186;8.468;2022-11-20T05:46:23;3.30;99.90
11083;DHT22;5595;50.186;8.468;2022-11-20T05:48:50;3.30;99.90
11083;DHT22;5595;50.186;8.468;2022-11-20T05:51:18;3.30;99.90
11083;DHT22;5595;50.186;8.468;2022-11-20T05:53:46;3.30;99.90
11083;DHT22;5595;50.186;8.468;2022-11-20T05:56:14;3.30;99.90
11083;DHT22;5595;50.186;8.468;2022-11-20T05:58:42;3.30;99.90
11083;DHT22;5595;50.186;8.468;2022-11-20T06:01:11;3.30;99.90
11083;DHT22;5595;50.186;8.468;2022-11-20T06:03:40;3.30;99.90
11083;DHT22;5595;50.186;8.468;2022-11-20T06:06:11;3.30;99.90
11083;DHT22;5595;50.186;8.468;2022-11-20T06:08:38;3.30;99.90
11083;DHT22;5595;50.186;8.468;2022-11-20T06:11:06;3.20;99.90
11083;DHT22;5595;50.186;8.468;2022-11-20T06:13:33;3.30;99.90
11083;DHT22;5595;50.186;8.468;2022-11-20T06:16:00;3.20;99.90
11083;DHT22;5595;50.186;8.468;2022-11-20T06:18:28;3.20;99.90
11083;DHT22;5595;50.186;8.468;2022-11-20T06:21:04;3.20;99.90
11083;DHT22;5595;50.186;8.468;2022-11-20T06:23:33;3.20;99.90
11083;DHT22;5595;50.186;8.468;2022-11-20T06:26:02;3.10;99.90
11083;DHT22;5595;50.186;8.468;2022-11-20T06:28:29;3.10;99.90
11083;DHT22;5595;50.186;8.468;2022-11-20T06:30:56;3.20;99.90
11083;DHT22;5595;50.186;8.468;2022-11-20T06:33:23;3.10;99.90
11083;DHT22;5595;50.186;8.468;2022-11-20T06:35:51;3.10;99.90
11083;DHT22;5595;50.186;8.468;2022-11-20T06:38:19;3.10;99.90
11083;DHT22;5595;50.186;8.468;2022-11-20T06:40:46;3.10;99.90
11083;DHT22;5595;50.186;8.468;2022-11-20T06:43:13;3.20;99.90
11083;DHT22;5595;50.186;8.468;2022-11-20T06:45:39;3.20;99.90
11083;DHT22;5595;50.186;8.468;2022-11-20T06:48:09;3.20;99.90
11083;DHT22;5595;50.186;8.468;2022-11-20T06:50:36;3.20;99.90
11083;DHT22;5595;50.186;8.468;2022-11-20T06:53:04;3.10;99.90
11083;DHT22;5595;50.186;8.468;2022-11-20T06:55:32;3.10;99.90
11083;DHT22;5595;50.186;8.468;2022-11-20T06:57:59;3.00;99.90
11083;DHT22;5595;50.186;8.468;2022-11-20T07:00:26;3.00;99.90
11083;DHT22;5595;50.186;8.468;2022-11-20T07:02:52;3.00;99.90
11083;DHT22;5595;50.186;8.468;2022-11-20T07:05:19;3.10;99.90
11083;DHT22;5595;50.186;8.468;2022-11-20T07:07:46;3.20;99.90
11083;DHT22;5595;50.186;8.468;2022-11-20T07:10:13;3.20;99.90
11083;DHT22;5595;50.186;8.468;2022-11-20T07:12:49;3.20;99.90
11083;DHT22;5595;50.186;8.468;2022-11-20T07:15:16;3.20;99.90
11083;DHT22;5595;50.186;8.468;2022-11-20T07:17:43;3.30;99.90
11083;DHT22;5595;50.186;8.468;2022-11-20T07:20:11;3.40;99.90
11083;DHT22;5595;50.186;8.468;2022-11-20T07:22:39;3.40;99.90
11083;DHT22;5595;50.186;8.468;2022-11-20T07:25:06;3.40;99.90
11083;DHT22;5595;50.186;8.468;2022-11-20T07:27:33;3.50;99.90
11083;DHT22;5595;50.186;8.468;2022-11-20T07:30:03;3.50;99.90
11083;DHT22;5595;50.186;8.468;2022-11-20T07:32:30;3.50;99.90
11083;DHT22;5595;50.186;8.468;2022-11-20T07:34:57;3.60;99.90
11083;DHT22;5595;50.186;8.468;2022-11-20T07:37:24;3.60;99.90
11083;DHT22;5595;50.186;8.468;2022-11-20T07:39:51;3.60;99.90
11083;DHT22;5595;50.186;8.468;2022-11-20T07:42:18;3.60;99.90
11083;DHT22;5595;50.186;8.468;2022-11-20T07:44:45;3.60;99.90
11083;DHT22;5595;50.186;8.468;2022-11-20T07:47:13;3.50;99.90
11083;DHT22;5595;50.186;8.468;2022-11-20T07:49:40;3.60;99.90
11083;DHT22;5595;50.186;8.468;2022-11-20T07:52:07;3.60;99.90
11083;DHT22;5595;50.186;8.468;2022-11-20T07:54:34;3.60;99.90
11083;DHT22;5595;50.186;8.468;2022-11-20T07:57:00;3.70;99.90
11083;DHT22;5595;50.186;8.468;2022-11-20T07:59:27;3.70;99.90
11083;DHT22;5595;50.186;8.468;2022-11-20T08:01:55;3.70;99.90
11083;DHT22;5595;50.186;8.468;2022-11-20T08:04:23;3.80;99.90
11083;DHT22;5595;50.186;8.468;2022-11-20T08:06:51;3.80;99.90
11083;DHT22;5595;50.186;8.468;2022-11-20T08:09:18;3.90;99.90
11083;DHT22;5595;50.186;8.468;2022-11-20T08:11:45;3.90;99.90
11083;DHT22;5595;50.186;8.468;2022-11-20T08:14:41;4.00;99.90
11083;DHT22;5595;50.186;8.468;2022-11-20T08:17:10;4.00;99.90
11083;DHT22;5595;50.186;8.468;2022-11-20T08:19:39;4.10;99.90
11083;DHT22;5595;50.186;8.468;2022-11-20T08:22:06;4.20;99.90
11083;DHT22;5595;50.186;8.468;2022-11-20T08:24:33;4.30;99.90
11083;DHT22;5595;50.186;8.468;2022-11-20T08:27:03;4.40;99.90
11083;DHT22;5595;50.186;8.468;2022-11-20T08:29:30;4.40;99.90
11083;DHT22;5595;50.186;8.468;2022-11-20T08:31:57;4.50;99.90
11083;DHT22;5595;50.186;8.468;2022-11-20T08:34:23;4.50;99.90
11083;DHT22;5595;50.186;8.468;2022-11-20T08:36:52;4.50;99.90
11083;DHT22;5595;50.186;8.468;2022-11-20T08:39:20;4.60;99.90
11083;DHT22;5595;50.186;8.468;2022-11-20T08:41:47;4.70;99.90
11083;DHT22;5595;50.186;8.468;2022-11-20T08:44:16;4.80;99.90
11083;DHT22;5595;50.186;8.468;2022-11-20T08:46:43;4.80;99.90
11083;DHT22;5595;50.186;8.468;2022-11-20T08:49:12;4.80;99.90
11083;DHT22;5595;50.186;8.468;2022-11-20T08:51:41;4.90;99.90
11083;DHT22;5595;50.186;8.468;2022-11-20T08:54:10;5.00;99.90
11083;DHT22;5595;50.186;8.468;2022-11-20T08:56:37;5.10;99.90
11083;DHT22;5595;50.186;8.468;2022-11-20T08:59:05;5.20;99.90
11083;DHT22;5595;50.186;8.468;2022-11-20T09:01:32;5.20;99.90
11083;DHT22;5595;50.186;8.468;2022-11-20T09:03:59;5.20;99.90
11083;DHT22;5595;50.186;8.468;2022-11-20T09:06:26;5.30;99.90
11083;DHT22;5595;50.186;8.468;2022-11-20T09:08:53;5.30;99.90
11083;DHT22;5595;50.186;8.468;2022-11-20T09:11:21;5.30;99.90
11083;DHT22;5595;50.186;8.468;2022-11-20T09:13:49;5.40;99.90
11083;DHT22;5595;50.186;8.468;2022-11-20T09:16:16;5.40;99.90
11083;DHT22;5595;50.186;8.468;2022-11-20T09:18:42;5.50;99.90
11083;DHT22;5595;50.186;8.468;2022-11-20T09:21:11;5.50;99.90
11083;DHT22;5595;50.186;8.468;2022-11-20T09:23:41;5.50;99.90
11083;DHT22;5595;50.186;8.468;2022-11-20T09:26:10;5.70;99.90
11083;DHT22;5595;50.186;8.468;2022-11-20T09:28:39;5.70;99.90
11083;DHT22;5595;50.186;8.468;2022-11-20T09:31:07;5.70;99.90
11083;DHT22;5595;50.186;8.468;2022-11-20T09:33:34;5.70;99.90
11083;DHT22;5595;50.186;8.468;2022-11-20T09:36:02;5.70;99.90
11083;DHT22;5595;50.186;8.468;2022-11-20T09:38:29;5.70;99.90
11083;DHT22;5595;50.186;8.468;2022-11-20T09:40:57;5.70;99.90
11083;DHT22;5595;50.186;8.468;2022-11-20T09:43:32;5.70;99.90
11083;DHT22;5595;50.186;8.468;2022-11-20T09:46:09;5.60;99.90
11083;DHT22;5595;50.186;8.468;2022-11-20T09:49:06;5.60;99.90
11083;DHT22;5595;50.186;8.468;2022-11-20T09:51:43;5.50;99.90
11083;DHT22;5595;50.186;8.468;2022-11-20T09:54:17;5.40;99.90
11083;DHT22;5595;50.186;8.468;2022-11-20T09:56:47;5.30;99.90
11083;DHT22;5595;50.186;8.468;2022-11-20T09:59:38;5.20;99.90
11083;DHT22;5595;50.186;8.468;2022-11-20T10:02:16;5.30;99.90
11083;DHT22;5595;50.186;8.468;2022-11-20T10:04:47;5.50;99.90
11083;DHT22;5595;50.186;8.468;2022-11-20T10:07:17;5.60;99.90
11083;DHT22;5595;50.186;8.468;2022-11-20T10:09:51;5.60;99.90
11083;DHT22;5595;50.186;8.468;2022-11-20T10:12:23;5.60;99.90
11083;DHT22;5595;50.186;8.468;2022-11-20T10:15:03;5.70;99.90
11083;DHT22;5595;50.186;8.468;2022-11-20T10:18:01;5.60;99.90
11083;DHT22;5595;50.186;8.468;2022-11-20T10:20:38;5.60;99.90
11083;DHT22;5595;50.186;8.468;2022-11-20T10:23:26;5.70;99.90
11083;DHT22;5595;50.186;8.468;2022-11-20T10:26:01;5.80;99.90
11083;DHT22;5595;50.186;8.468;2022-11-20T10:28:39;5.90;99.90
11083;DHT22;5595;50.186;8.468;2022-11-20T10:31:22;6.10;99.90
11083;DHT22;5595;50.186;8.468;2022-11-20T10:33:54;6.00;99.90
11083;DHT22;5595;50.186;8.468;2022-11-20T10:36:27;6.10;99.90
11083;DHT22;5595;50.186;8.468;2022-11-20T10:38:57;6.00;99.90
11083;DHT22;5595;50.186;8.468;2022-11-20T10:41:27;6.00;99.90
11083;DHT22;5595;50.186;8.468;2022-11-20T10:44:02;6.10;99.90
11083;DHT22;5595;50.186;8.468;2022-11-20T10:46:35;6.20;99.90
11083;DHT22;5595;50.186;8.468;2022-11-20T10:49:12;6.20;99.90
11083;DHT22;5595;50.186;8.468;2022-11-20T10:51:56;6.10;99.90
11083;DHT22;5595;50.186;8.468;2022-11-20T10:54:33;6.00;99.90
11083;DHT22;5595;50.186;8.468;2022-11-20T10:57:16;6.00;99.90
11083;DHT22;5595;50.186;8.468;2022-11-20T11:00:01;6.00;99.90
11083;DHT22;5595;50.186;8.468;2022-11-20T11:02:35;6.20;99.90
11083;DHT22;5595;50.186;8.468;2022-11-20T11:05:13;6.30;99.90
11083;DHT22;5595;50.186;8.468;2022-11-20T11:07:44;6.20;99.90
11083;DHT22;5595;50.186;8.468;2022-11-20T11:10:15;6.20;99.90
11083;DHT22;5595;50.186;8.468;2022-11-20T11:12:44;6.30;99.90
11083;DHT22;5595;50.186;8.468;2022-11-20T11:15:23;6.20;99.90
11083;DHT22;5595;50.186;8.468;2022-11-20T11:17:51;6.30;99.90
11083;DHT22;5595;50.186;8.468;2022-11-20T11:20:20;6.20;99.90
11083;DHT22;5595;50.186;8.468;2022-11-20T11:22:50;6.30;99.90
11083;DHT22;5595;50.186;8.468;2022-11-20T11:25:27;6.30;99.90
11083;DHT22;5595;50.186;8.468;2022-11-20T11:27:57;6.30;99.90
11083;DHT22;5595;50.186;8.468;2022-11-20T11:30:25;6.20;99.90
11083;DHT22;5595;50.186;8.468;2022-11-20T11:33:03;6.20;99.90
11083;DHT22;5595;50.186;8.468;2022-11-20T11:35:43;6.30;99.90
11083;DHT22;5595;50.186;8.468;2022-11-20T11:38:16;6.50;99.90
11083;DHT22;5595;50.186;8.468;2022-11-20T11:40:53;6.60;99.90
11083;DHT22;5595;50.186;8.468;2022-11-20T11:43:26;6.60;99.90
11083;DHT22;5595;50.186;8.468;2022-11-20T11:46:24;6.60;99.90
11083;DHT22;5595;50.186;8.468;2022-11-20T11:48:57;6.70;99.90
11083;DHT22;5595;50.186;8.468;2022-11-20T11:51:28;6.70;99.90
11083;DHT22;5595;50.186;8.468;2022-11-20T11:53:58;6.70;99.90
11083;DHT22;5595;50.186;8.468;2022-11-20T11:56:27;6.80;99.90
11083;DHT22;5595;50.186;8.468;2022-11-20T11:58:56;6.80;99.90
11083;DHT22;5595;50.186;8.468;2022-11-20T12:01:31;6.80;99.90
11083;DHT22;5595;50.186;8.468;2022-11-20T12:04:04;6.70;99.90
11083;DHT22;5595;50.186;8.468;2022-11-20T12:06:35;6.60;99.90
11083;DHT22;5595;50.186;8.468;2022-11-20T12:09:05;6.50;99.90
11083;DHT22;5595;50.186;8.468;2022-11-20T12:11:37;6.40;99.90
11083;DHT22;5595;50.186;8.468;2022-11-20T12:14:13;6.40;99.90
11083;DHT22;5595;50.186;8.468;2022-11-20T12:16:41;6.40;99.90
11083;DHT22;5595;50.186;8.468;2022-11-20T12:19:10;6.30;99.90
11083;DHT22;5595;50.186;8.468;2022-11-20T12:21:46;6.30;99.90
11083;DHT22;5595;50.186;8.468;2022-11-20T12:24:32;6.50;99.90
11083;DHT22;5595;50.186;8.468;2022-11-20T12:27:11;6.50;99.90
11083;DHT22;5595;50.186;8.468;2022-11-20T12:29:52;6.60;99.90
11083;DHT22;5595;50.186;8.468;2022-11-20T12:32:39;6.60;99.90
11083;DHT22;5595;50.186;8.468;2022-11-20T12:35:19;6.70;99.90
11083;DHT22;5595;50.186;8.468;2022-11-20T12:38:04;6.80;99.90
11083;DHT22;5595;50.186;8.468;2022-11-20T12:40:40;6.90;99.90
11083;DHT22;5595;50.186;8.468;2022-11-20T12:43:19;6.90;99.90
11083;DHT22;5595;50.186;8.468;2022-11-20T12:46:25;6.80;99.90
11083;DHT22;5595;50.186;8.468;2022-11-20T12:49:20;6.80;99.90
11083;DHT22;5595;50.186;8.468;2022-11-20T12:52:03;6.70;99.90
11083;DHT22;5595;50.186;8.468;2022-11-20T12:57:43;6.70;99.90
11083;DHT22;5595;50.186;8.468;2022-11-20T13:00:15;6.60;99.90
11083;DHT22;5595;50.186;8.468;2022-11-20T13:05:55;6.50;99.90
11083;DHT22;5595;50.186;8.468;2022-11-20T13:08:27;6.40;99.90
11083;DHT22;5595;50.186;8.468;2022-11-20T13:11:00;6.50;99.90
11083;DHT22;5595;50.186;8.468;2022-11-20T13:13:39;6.50;99.90
11083;DHT22;5595;50.186;8.468;2022-11-20T13:16:09;6.50;99.90
11083;DHT22;5595;50.186;8.468;2022-11-20T13:18:39;6.60;99.90
11083;DHT22;5595;50.186;8.468;2022-11-20T13:21:18;6.60;99.90
11083;DHT22;5595;50.186;8.468;2022-11-20T13:23:47;6.60;99.90
11083;DHT22;5595;50.186;8.468;2022-11-20T13:26:17;6.60;99.90
11083;DHT22;5595;50.186;8.468;2022-11-20T13:28:47;6.50;99.90
11083;DHT22;5595;50.186;8.468;2022-11-20T13:31:31;6.40;99.90
11083;DHT22;5595;50.186;8.468;2022-11-20T13:34:02;6.50;99.90
11083;DHT22;5595;50.186;8.468;2022-11-20T13:36:30;6.50;99.90
11083;DHT22;5595;50.186;8.468;2022-11-20T13:38:59;6.60;99.90
11083;DHT22;5595;50.186;8.468;2022-11-20T13:41:28;6.60;99.90
11083;DHT22;5595;50.186;8.468;2022-11-20T13:44:09;6.50;99.90
11083;DHT22;5595;50.186;8.468;2022-11-20T13:46:39;6.60;99.90
11083;DHT22;5595;50.186;8.468;2022-11-20T13:49:10;6.50;99.90
11083;DHT22;5595;50.186;8.468;2022-11-20T13:51:44;6.60;99.90
11083;DHT22;5595;50.186;8.468;2022-11-20T13:54:27;6.50;99.90
11083;DHT22;5595;50.186;8.468;2022-11-20T13:57:14;6.50;99.90
11083;DHT22;5595;50.186;8.468;2022-11-20T13:59:53;6.50;99.90
11083;DHT22;5595;50.186;8.468;2022-11-20T14:02:25;6.50;99.90
11083;DHT22;5595;50.186;8.468;2022-11-20T14:04:55;6.40;99.90
11083;DHT22;5595;50.186;8.468;2022-11-20T14:07:27;6.40;99.90
11083;DHT22;5595;50.186;8.468;2022-11-20T14:09:58;6.30;99.90
11083;DHT22;5595;50.186;8.468;2022-11-20T14:12:29;6.30;99.90
11083;DHT22;5595;50.186;8.468;2022-11-20T14:14:58;6.30;99.90
11083;DHT22;5595;50.186;8.468;2022-11-20T14:17:31;6.30;99.90
11083;DHT22;5595;50.186;8.468;2022-11-20T14:20:00;6.20;99.90
11083;DHT22;5595;50.186;8.468;2022-11-20T14:22:28;6.00;99.90
11083;DHT22;5595;50.186;8.468;2022-11-20T14:25:05;6.00;99.90
11083;DHT22;5595;50.186;8.468;2022-11-20T14:27:34;6.10;99.90
11083;DHT22;5595;50.186;8.468;2022-11-20T14:30:05;6.00;99.90
11083;DHT22;5595;50.186;8.468;2022-11-20T14:32:34;6.00;99.90
11083;DHT22;5595;50.186;8.468;2022-11-20T14:35:07;6.00;99.90
11083;DHT22;5595;50.186;8.468;2022-11-20T14:37:37;6.10;99.90
11083;DHT22;5595;50.186;8.468;2022-11-20T14:40:22;6.10;99.90
11083;DHT22;5595;50.186;8.468;2022-11-20T14:42:50;6.00;99.90
11083;DHT22;5595;50.186;8.468;2022-11-20T14:45:19;5.90;99.90
11083;DHT22;5595;50.186;8.468;2022-11-20T14:47:46;5.90;99.90
11083;DHT22;5595;50.186;8.468;2022-11-20T14:50:18;5.90;99.90
11083;DHT22;5595;50.186;8.468;2022-11-20T14:52:50;5.80;99.90
11083;DHT22;5595;50.186;8.468;2022-11-20T14:55:25;5.80;99.90
11083;DHT22;5595;50.186;8.468;2022-11-20T14:57:56;5.90;99.90
11083;DHT22;5595;50.186;8.468;2022-11-20T15:00:25;5.90;99.90
11083;DHT22;5595;50.186;8.468;2022-11-20T15:02:52;6.00;99.90
11083;DHT22;5595;50.186;8.468;2022-11-20T15:05:21;6.00;99.90
11083;DHT22;5595;50.186;8.468;2022-11-20T15:07:50;6.00;99.90
11083;DHT22;5595;50.186;8.468;2022-11-20T15:10:22;6.00;99.90
11083;DHT22;5595;50.186;8.468;2022-11-20T15:12:51;6.10;99.90
11083;DHT22;5595;50.186;8.468;2022-11-20T15:15:23;6.00;99.90
11083;DHT22;5595;50.186;8.468;2022-11-20T15:17:53;6.00;99.90
11083;DHT22;5595;50.186;8.468;2022-11-20T15:20:22;6.00;99.90
11083;DHT22;5595;50.186;8.468;2022-11-20T15:22:50;6.00;99.90
11083;DHT22;5595;50.186;8.468;2022-11-20T15:25:18;6.00;99.90
11083;DHT22;5595;50.186;8.468;2022-11-20T15:27:46;6.00;99.90
11083;DHT22;5595;50.186;8.468;2022-11-20T15:30:17;6.00;99.90
11083;DHT22;5595;50.186;8.468;2022-11-20T15:32:45;6.00;99.90
11083;DHT22;5595;50.186;8.468;2022-11-20T15:35:14;5.90;99.90
11083;DHT22;5595;50.186;8.468;2022-11-20T15:37:42;5.90;99.90
11083;DHT22;5595;50.186;8.468;2022-11-20T15:40:10;5.90;99.90
11083;DHT22;5595;50.186;8.468;2022-11-20T15:42:37;5.90;99.90
11083;DHT22;5595;50.186;8.468;2022-11-20T15:45:04;5.90;99.90
11083;DHT22;5595;50.186;8.468;2022-11-20T15:47:34;5.90;99.90
11083;DHT22;5595;50.186;8.468;2022-11-20T15:50:09;5.90;99.90
11083;DHT22;5595;50.186;8.468;2022-11-20T15:52:41;5.90;99.90
11083;DHT22;5595;50.186;8.468;2022-11-20T15:55:10;5.90;99.90
11083;DHT22;5595;50.186;8.468;2022-11-20T15:57:37;5.90;99.90
11083;DHT22;5595;50.186;8.468;2022-11-20T16:00:04;5.90;99.90
11083;DHT22;5595;50.186;8.468;2022-11-20T16:02:32;5.90;99.90
11083;DHT22;5595;50.186;8.468;2022-11-20T16:04:59;5.80;99.90
11083;DHT22;5595;50.186;8.468;2022-11-20T16:07:25;5.70;99.90
11083;DHT22;5595;50.186;8.468;2022-11-20T16:09:54;5.70;99.90
11083;DHT22;5595;50.186;8.468;2022-11-20T16:12:25;5.80;99.90
11083;DHT22;5595;50.186;8.468;2022-11-20T16:15:09;5.80;99.90
11083;DHT22;5595;50.186;8.468;2022-11-20T16:17:53;5.70;99.90
11083;DHT22;5595;50.186;8.468;2022-11-20T16:20:20;5.60;99.90
11083;DHT22;5595;50.186;8.468;2022-11-20T16:22:47;5.60;99.90
11083;DHT22;5595;50.186;8.468;2022-11-20T16:25:16;5.60;99.90
11083;DHT22;5595;50.186;8.468;2022-11-20T16:27:42;5.60;99.90
11083;DHT22;5595;50.186;8.468;2022-11-20T16:30:10;5.50;99.90